createdAt,value
2018-04-22T00:02:06.625Z,16.10
2018-04-22T00:04:39.334Z,16.10
2018-04-22T00:07:12.931Z,16.10
2018-04-22T00:09:45.529Z,16.00
2018-04-22T00:12:17.896Z,16.00
2018-04-22T00:14:50.426Z,16.00
2018-04-22T00:17:22.774Z,15.90
2018-04-22T00:20:04.721Z,16.00
2018-04-22T00:22:38.302Z,15.90
2018-04-22T00:25:10.721Z,15.90
2018-04-22T00:27:45.853Z,15.70
2018-04-22T00:30:22.797Z,15.70
2018-04-22T00:32:59.397Z,15.60
2018-04-22T00:35:31.905Z,15.50
2018-04-22T00:38:04.385Z,15.40
2018-04-22T00:40:38.035Z,15.30
2018-04-22T00:43:15.514Z,15.20
2018-04-22T00:45:49.293Z,15.20
2018-04-22T00:48:21.814Z,15.10
2018-04-22T00:50:54.386Z,15.10
2018-04-22T00:53:42.306Z,15.10
2018-04-22T00:56:15.801Z,15.10
2018-04-22T00:58:49.893Z,15.30
2018-04-22T01:01:23.209Z,15.20
2018-04-22T01:03:56.742Z,15.20
2018-04-22T01:06:29.331Z,15.10
2018-04-22T01:09:01.821Z,15.20
2018-04-22T01:11:34.293Z,15.20
2018-04-22T01:14:06.755Z,15.30
2018-04-22T01:16:44.102Z,15.20
2018-04-22T01:19:16.597Z,15.20
2018-04-22T01:21:48.969Z,15.00
2018-04-22T01:24:21.273Z,15.00
2018-04-22T01:26:57.019Z,15.00
2018-04-22T01:29:33.572Z,15.00
2018-04-22T01:32:10.109Z,14.90
2018-04-22T01:34:43.490Z,14.60
2018-04-22T01:37:16.233Z,14.60
2018-04-22T01:39:53.524Z,14.90
2018-04-22T01:42:27.941Z,14.70
2018-04-22T01:45:18.445Z,14.70
2018-04-22T01:47:51.122Z,14.50
2018-04-22T01:50:26.550Z,14.70
2018-04-22T01:53:01.060Z,14.70
2018-04-22T01:55:33.621Z,14.80
2018-04-22T01:58:06.442Z,14.90
2018-04-22T02:00:39.670Z,14.70
2018-04-22T02:03:12.091Z,14.70
2018-04-22T02:05:44.546Z,14.70
2018-04-22T02:08:16.960Z,14.60
2018-04-22T02:10:50.074Z,14.40
2018-04-22T02:13:23.158Z,14.40
2018-04-22T02:16:18.118Z,14.40
2018-04-22T02:18:54.873Z,14.30
2018-04-22T02:21:27.413Z,14.40
2018-04-22T02:24:02.851Z,14.40
2018-04-22T02:26:35.460Z,14.40
2018-04-22T02:29:08.082Z,14.40
2018-04-22T02:31:47.710Z,14.30
2018-04-22T02:34:20.074Z,14.30
2018-04-22T02:37:01.086Z,14.30
2018-04-22T02:39:33.797Z,14.20
2018-04-22T02:42:07.177Z,14.10
2018-04-22T02:44:40.966Z,14.10
2018-04-22T02:47:14.117Z,13.90
2018-04-22T02:49:48.935Z,13.90
2018-04-22T02:52:33.270Z,13.80
2018-04-22T02:55:07.787Z,13.90
2018-04-22T02:57:41.373Z,14.10
2018-04-22T03:00:13.747Z,14.20
2018-04-22T03:02:46.090Z,14.20
2018-04-22T03:05:19.666Z,14.30
2018-04-22T03:07:54.285Z,14.30
2018-04-22T03:10:26.710Z,14.40
2018-04-22T03:12:59.046Z,14.40
2018-04-22T03:15:32.403Z,14.30
2018-04-22T03:18:04.741Z,14.20
2018-04-22T03:20:37.266Z,14.00
2018-04-22T03:23:09.726Z,14.00
2018-04-22T03:25:42.150Z,14.00
2018-04-22T03:28:14.653Z,14.10
2018-04-22T03:30:48.294Z,14.10
2018-04-22T03:33:20.634Z,13.80
2018-04-22T03:35:53.215Z,13.60
2018-04-22T03:38:25.564Z,13.50
2018-04-22T03:41:02.294Z,13.40
2018-04-22T03:43:34.946Z,13.40
2018-04-22T03:46:09.570Z,13.80
2018-04-22T03:48:47.609Z,13.80
2018-04-22T03:51:20.421Z,13.80
2018-04-22T03:53:53.557Z,13.60
2018-04-22T03:56:26.226Z,13.60
2018-04-22T03:58:59.822Z,13.60
2018-04-22T04:01:32.225Z,13.60
2018-04-22T04:04:06.650Z,13.60
2018-04-22T04:06:39.166Z,13.70
2018-04-22T04:09:21.026Z,13.60
2018-04-22T04:11:53.401Z,13.50
2018-04-22T04:14:27.941Z,13.40
2018-04-22T04:17:02.317Z,13.50
2018-04-22T04:19:46.874Z,13.50
2018-04-22T04:22:33.482Z,13.60
2018-04-22T04:28:24.260Z,13.60
2018-04-22T04:31:04.602Z,13.60
2018-04-22T04:33:59.095Z,13.60
2018-04-22T04:36:33.534Z,13.60
2018-04-22T04:39:10.349Z,13.60
2018-04-22T04:41:42.833Z,13.60
2018-04-22T04:44:17.494Z,13.50
2018-04-22T04:46:52.006Z,13.80
2018-04-22T04:49:25.781Z,13.80
2018-04-22T04:52:08.323Z,14.30
2018-04-22T04:54:40.889Z,14.60
2018-04-22T04:57:13.293Z,14.90
2018-04-22T04:59:46.109Z,15.00
2018-04-22T05:02:22.473Z,15.10
2018-04-22T05:05:03.183Z,15.00
2018-04-22T05:07:36.791Z,14.90
2018-04-22T05:10:15.446Z,14.90
2018-04-22T05:12:49.015Z,14.90
2018-04-22T05:15:23.938Z,14.90
2018-04-22T05:17:56.225Z,14.70
2018-04-22T05:20:29.059Z,14.90
2018-04-22T05:23:01.510Z,14.90
2018-04-22T05:25:33.946Z,15.00
2018-04-22T05:28:07.105Z,15.40
2018-04-22T05:30:39.533Z,15.30
2018-04-22T05:33:11.977Z,15.50
2018-04-22T05:35:44.397Z,15.60
2018-04-22T05:38:22.585Z,15.70
2018-04-22T05:40:58.372Z,15.80
2018-04-22T05:43:31.037Z,16.00
2018-04-22T05:46:03.579Z,16.00
2018-04-22T05:48:35.907Z,16.00
2018-04-22T05:51:10.509Z,16.50
2018-04-22T05:53:46.454Z,16.60
2018-04-22T05:56:18.934Z,16.80
2018-04-22T05:58:51.482Z,17.10
2018-04-22T06:01:31.397Z,17.00
2018-04-22T06:04:08.774Z,17.00
2018-04-22T06:06:45.606Z,17.10
2018-04-22T06:09:18.147Z,17.10
2018-04-22T06:11:50.666Z,17.30
2018-04-22T06:14:26.497Z,17.40
2018-04-22T06:17:06.256Z,17.60
2018-04-22T06:19:39.878Z,17.60
2018-04-22T06:22:13.217Z,17.70
2018-04-22T06:24:45.549Z,17.40
2018-04-22T06:27:18.321Z,17.10
2018-04-22T06:29:50.839Z,17.40
2018-04-22T06:32:31.499Z,17.70
2018-04-22T06:35:04.230Z,17.70
2018-04-22T06:37:37.459Z,17.40
2018-04-22T06:40:17.532Z,17.40
2018-04-22T06:42:50.098Z,17.60
2018-04-22T06:45:31.922Z,17.00
2018-04-22T06:48:04.382Z,17.00
2018-04-22T06:50:44.538Z,17.30
2018-04-22T06:53:17.299Z,17.70
2018-04-22T06:55:50.538Z,18.40
2018-04-22T06:58:23.264Z,18.40
2018-04-22T07:01:00.453Z,18.10
2018-04-22T07:03:32.850Z,18.30
2018-04-22T07:06:13.594Z,18.50
2018-04-22T07:08:46.030Z,18.50
2018-04-22T07:11:18.570Z,18.60
2018-04-22T07:13:51.913Z,18.60
2018-04-22T07:16:27.034Z,18.80
2018-04-22T07:19:03.745Z,18.90
2018-04-22T07:21:36.302Z,18.80
2018-04-22T07:24:09.787Z,19.10
2018-04-22T07:26:42.921Z,19.00
2018-04-22T07:29:15.566Z,19.00
2018-04-22T07:31:48.005Z,19.20
2018-04-22T07:34:22.182Z,18.70
2018-04-22T07:36:55.673Z,18.60
2018-04-22T07:39:28.264Z,18.40
2018-04-22T07:42:02.861Z,18.80
2018-04-22T07:44:35.381Z,19.00
2018-04-22T07:47:07.841Z,19.40
2018-04-22T07:49:40.405Z,19.80
2018-04-22T07:52:18.329Z,20.30
2018-04-22T07:54:51.833Z,20.40
2018-04-22T07:57:24.253Z,20.40
2018-04-22T07:59:56.671Z,20.80
2018-04-22T08:02:29.114Z,20.90
2018-04-22T08:05:01.613Z,20.50
2018-04-22T08:07:35.729Z,19.70
2018-04-22T08:10:09.343Z,19.60
2018-04-22T08:12:42.676Z,20.00
2018-04-22T08:15:15.165Z,20.00
2018-04-22T08:18:02.849Z,20.10
2018-04-22T08:20:36.018Z,20.10
2018-04-22T08:23:08.355Z,20.00
2018-04-22T08:25:41.499Z,19.90
2018-04-22T08:28:14.645Z,20.20
2018-04-22T08:30:47.821Z,20.70
2018-04-22T08:33:22.043Z,20.70
2018-04-22T08:35:54.528Z,20.70
2018-04-22T08:38:28.301Z,20.50
2018-04-22T08:41:01.941Z,20.50
2018-04-22T08:43:34.337Z,20.60
2018-04-22T08:46:06.730Z,20.80
2018-04-22T08:48:39.998Z,21.50
2018-04-22T08:51:12.418Z,21.40
2018-04-22T08:53:44.870Z,21.50
2018-04-22T08:56:17.289Z,21.20
2018-04-22T08:58:49.786Z,21.40
2018-04-22T09:01:23.422Z,21.70
2018-04-22T09:03:56.078Z,21.70
2018-04-22T09:06:29.493Z,21.70
2018-04-22T09:09:01.853Z,21.80
2018-04-22T09:11:34.274Z,21.90
2018-04-22T09:14:07.554Z,22.80
2018-04-22T09:16:40.154Z,22.70
2018-04-22T09:19:12.718Z,23.40
2018-04-22T09:21:46.494Z,23.70
2018-04-22T09:24:18.822Z,23.40
2018-04-22T09:26:51.182Z,23.40
2018-04-22T09:29:23.849Z,23.90
2018-04-22T09:31:56.409Z,24.20
2018-04-22T09:34:28.973Z,24.50
2018-04-22T09:37:02.210Z,24.60
2018-04-22T09:39:34.574Z,24.60
2018-04-22T09:42:07.037Z,24.90
2018-04-22T09:44:40.274Z,25.40
2018-04-22T09:47:12.778Z,25.40
2018-04-22T09:49:45.118Z,25.50
2018-04-22T09:52:17.902Z,25.10
2018-04-22T09:54:50.414Z,25.20
2018-04-22T09:57:23.034Z,25.90
2018-04-22T09:59:55.490Z,26.10
2018-04-22T10:02:31.677Z,26.20
2018-04-22T10:05:07.085Z,26.20
2018-04-22T10:07:40.389Z,26.50
2018-04-22T10:10:13.527Z,26.40
2018-04-22T10:12:45.946Z,26.40
2018-04-22T10:15:18.412Z,26.40
2018-04-22T10:17:50.930Z,26.40
2018-04-22T10:20:23.395Z,26.70
2018-04-22T10:22:59.993Z,26.90
2018-04-22T10:25:32.349Z,27.00
2018-04-22T10:28:05.154Z,27.00
2018-04-22T10:30:42.680Z,26.90
2018-04-22T10:33:15.650Z,26.90
2018-04-22T10:35:52.949Z,27.00
2018-04-22T10:38:25.467Z,27.00
2018-04-22T10:40:57.827Z,27.20
2018-04-22T10:43:30.145Z,26.80
2018-04-22T10:46:02.482Z,27.10
2018-04-22T10:48:40.865Z,27.50
2018-04-22T10:51:13.299Z,27.10
2018-04-22T10:53:45.730Z,26.80
2018-04-22T10:56:18.130Z,26.90
2018-04-22T10:58:52.770Z,27.30
2018-04-22T11:01:32.966Z,27.30
2018-04-22T11:04:05.411Z,26.50
2018-04-22T11:06:38.503Z,27.30
2018-04-22T11:09:11.222Z,27.30
2018-04-22T11:11:43.855Z,27.70
2018-04-22T11:14:16.548Z,27.70
2018-04-22T11:16:48.821Z,27.40
2018-04-22T11:19:23.306Z,27.70
2018-04-22T11:21:56.597Z,28.10
2018-04-22T11:24:29.066Z,28.10
2018-04-22T11:27:01.678Z,28.10
2018-04-22T11:29:35.197Z,28.20
2018-04-22T11:32:07.750Z,27.50
2018-04-22T11:34:40.421Z,27.50
2018-04-22T11:37:14.970Z,27.90
2018-04-22T11:39:48.414Z,27.90
2018-04-22T11:42:20.962Z,28.70
2018-04-22T11:44:53.601Z,29.00
2018-04-22T11:47:25.941Z,28.70
2018-04-22T11:49:58.359Z,28.40
2018-04-22T11:52:30.722Z,28.70
2018-04-22T11:55:03.278Z,28.90
2018-04-22T11:57:36.713Z,28.10
2018-04-22T12:00:10.754Z,28.10
2018-04-22T12:02:43.013Z,28.10
2018-04-22T12:05:16.390Z,29.00
2018-04-22T12:07:48.850Z,29.00
2018-04-22T12:10:21.341Z,29.20
2018-04-22T12:12:53.676Z,29.20
2018-04-22T12:15:26.222Z,29.50
2018-04-22T12:17:59.310Z,29.40
2018-04-22T12:20:32.153Z,29.40
2018-04-22T12:23:04.657Z,29.60
2018-04-22T12:25:37.089Z,29.50
2018-04-22T12:28:09.735Z,29.60
2018-04-22T12:30:42.257Z,29.40
2018-04-22T12:33:14.820Z,29.30
2018-04-22T12:35:47.468Z,29.30
2018-04-22T12:38:19.998Z,29.40
2018-04-22T12:40:52.625Z,29.40
2018-04-22T12:43:26.058Z,29.50
2018-04-22T12:45:58.514Z,29.50
2018-04-22T12:48:30.846Z,29.80
2018-04-22T12:51:04.229Z,29.60
2018-04-22T12:53:37.369Z,29.50
2018-04-22T12:56:10.616Z,29.30
2018-04-22T12:58:43.878Z,29.30
2018-04-22T13:01:17.041Z,29.50
2018-04-22T13:03:49.701Z,29.50
2018-04-22T13:06:22.104Z,29.40
2018-04-22T13:08:54.721Z,29.70
2018-04-22T13:11:27.080Z,29.50
2018-04-22T13:13:59.433Z,29.70
2018-04-22T13:16:31.902Z,29.50
2018-04-22T13:19:04.333Z,29.40
2018-04-22T13:21:36.834Z,29.40
2018-04-22T13:24:09.178Z,29.20
2018-04-22T13:26:41.918Z,28.90
2018-04-22T13:29:14.448Z,29.10
2018-04-22T13:31:47.501Z,29.40
2018-04-22T13:34:20.961Z,29.10
2018-04-22T13:36:53.614Z,29.00
2018-04-22T13:39:26.974Z,29.10
2018-04-22T13:41:59.502Z,29.10
2018-04-22T13:44:32.115Z,29.40
2018-04-22T13:47:05.713Z,29.40
2018-04-22T13:49:38.362Z,29.00
2018-04-22T13:52:11.507Z,28.90
2018-04-22T13:54:44.095Z,28.90
2018-04-22T13:57:16.671Z,29.30
2018-04-22T13:59:49.117Z,29.10
2018-04-22T14:02:21.798Z,28.90
2018-04-22T14:04:55.125Z,29.10
2018-04-22T14:07:27.885Z,28.80
2018-04-22T14:10:00.398Z,28.80
2018-04-22T14:12:33.110Z,28.30
2018-04-22T14:15:05.593Z,28.20
2018-04-22T14:17:38.021Z,28.20
2018-04-22T14:20:10.485Z,28.20
2018-04-22T14:22:42.983Z,28.20
2018-04-22T14:25:15.340Z,28.30
2018-04-22T14:27:47.837Z,28.40
2018-04-22T14:30:20.405Z,28.70
2018-04-22T14:32:52.977Z,28.70
2018-04-22T14:35:25.511Z,28.80
2018-04-22T14:37:58.727Z,29.20
2018-04-22T14:40:31.066Z,29.10
2018-04-22T14:43:04.207Z,28.60
2018-04-22T14:45:48.861Z,28.50
2018-04-22T14:48:22.477Z,28.60
2018-04-22T14:50:54.865Z,28.40
2018-04-22T14:53:27.365Z,28.50
2018-04-22T14:55:59.917Z,28.80
2018-04-22T14:58:32.649Z,28.40
2018-04-22T15:01:05.117Z,28.60
2018-04-22T15:03:37.637Z,28.80
2018-04-22T15:06:10.404Z,28.70
2018-04-22T15:08:42.937Z,28.70
2018-04-22T15:11:16.291Z,27.80
2018-04-22T15:13:48.811Z,27.80
2018-04-22T15:16:21.313Z,27.80
2018-04-22T15:18:54.739Z,27.90
2018-04-22T15:21:27.373Z,27.90
2018-04-22T15:24:00.331Z,27.70
2018-04-22T15:26:32.658Z,27.70
2018-04-22T15:29:06.090Z,27.60
2018-04-22T15:31:38.449Z,27.60
2018-04-22T15:34:10.950Z,27.70
2018-04-22T15:36:44.036Z,27.80
2018-04-22T15:39:16.793Z,27.80
2018-04-22T15:41:49.311Z,27.80
2018-04-22T15:44:21.882Z,27.80
2018-04-22T15:46:54.486Z,27.70
2018-04-22T15:49:31.104Z,27.80
2018-04-22T15:52:04.512Z,27.50
2018-04-22T15:54:37.961Z,27.30
2018-04-22T15:57:10.477Z,27.30
2018-04-22T15:59:44.134Z,27.30
2018-04-22T16:02:16.517Z,27.30
2018-04-22T16:04:48.901Z,27.30
2018-04-22T16:07:21.378Z,27.20
2018-04-22T16:09:54.203Z,27.10
2018-04-22T16:12:26.650Z,27.30
2018-04-22T16:15:02.577Z,27.30
2018-04-22T16:17:35.174Z,27.30
2018-04-22T16:20:09.458Z,27.10
2018-04-22T16:22:42.730Z,26.90
2018-04-22T16:25:17.222Z,26.80
2018-04-22T16:27:49.861Z,26.70
2018-04-22T16:30:30.830Z,26.80
2018-04-22T16:33:10.405Z,26.80
2018-04-22T16:35:43.038Z,26.60
2018-04-22T16:38:16.185Z,26.50
2018-04-22T16:40:55.181Z,26.50
2018-04-22T16:43:27.621Z,26.50
2018-04-22T16:46:00.030Z,26.40
2018-04-22T16:48:32.514Z,26.40
2018-04-22T16:51:05.935Z,26.40
2018-04-22T16:53:38.286Z,26.30
2018-04-22T16:56:11.478Z,26.20
2018-04-22T16:58:43.990Z,26.10
2018-04-22T17:01:17.576Z,26.00
2018-04-22T17:03:52.030Z,26.10
2018-04-22T17:06:29.042Z,26.00
2018-04-22T17:09:02.494Z,26.00
2018-04-22T17:11:35.795Z,25.90
2018-04-22T17:14:20.415Z,25.90
2018-04-22T17:16:52.851Z,25.70
2018-04-22T17:19:25.897Z,25.60
2018-04-22T17:22:03.025Z,25.60
2018-04-22T17:24:35.606Z,25.60
2018-04-22T17:27:07.982Z,25.60
2018-04-22T17:29:41.577Z,25.50
2018-04-22T17:32:15.741Z,25.40
2018-04-22T17:34:48.190Z,25.30
2018-04-22T17:37:23.998Z,25.20
2018-04-22T17:40:00.342Z,25.10
2018-04-22T17:42:34.930Z,25.20
2018-04-22T17:45:07.570Z,25.10
2018-04-22T17:47:41.304Z,25.00
2018-04-22T17:50:13.878Z,24.90
2018-04-22T17:52:47.390Z,25.00
2018-04-22T17:55:19.749Z,24.90
2018-04-22T17:57:54.969Z,24.70
2018-04-22T18:00:27.422Z,24.60
2018-04-22T18:02:59.817Z,24.60
2018-04-22T18:05:32.180Z,24.50
2018-04-22T18:08:16.997Z,24.40
2018-04-22T18:10:53.385Z,24.30
2018-04-22T18:13:27.989Z,24.20
2018-04-22T18:16:00.449Z,24.10
2018-04-22T18:18:34.133Z,23.90
2018-04-22T18:21:06.448Z,23.90
2018-04-22T18:23:41.598Z,23.60
2018-04-22T18:26:14.077Z,23.60
2018-04-22T18:28:46.738Z,23.80
2018-04-22T18:31:19.066Z,23.70
2018-04-22T18:33:51.573Z,23.60
2018-04-22T18:36:24.051Z,23.50
2018-04-22T18:38:58.526Z,23.40
2018-04-22T18:41:30.833Z,23.40
2018-04-22T18:44:11.519Z,23.20
2018-04-22T18:46:43.925Z,23.10
2018-04-22T18:49:16.702Z,22.90
2018-04-22T18:51:49.110Z,22.80
2018-04-22T18:54:21.559Z,22.60
2018-04-22T18:56:54.118Z,22.50
2018-04-22T18:59:26.706Z,22.00
2018-04-22T19:02:35.833Z,21.80
2018-04-22T19:05:08.338Z,21.80
2018-04-22T19:07:41.721Z,21.70
2018-04-22T19:10:16.290Z,21.60
2018-04-22T19:12:49.643Z,21.50
2018-04-22T19:15:22.636Z,21.30
2018-04-22T19:17:58.328Z,21.00
2018-04-22T19:20:39.737Z,20.90
2018-04-22T19:23:12.414Z,20.80
2018-04-22T19:25:59.725Z,20.60
2018-04-22T19:28:32.126Z,20.40
2018-04-22T19:31:04.513Z,20.40
2018-04-22T19:33:37.045Z,20.20
2018-04-22T19:36:10.242Z,20.30
2018-04-22T19:38:47.233Z,20.30
2018-04-22T19:41:20.649Z,20.40
2018-04-22T19:43:53.756Z,20.50
2018-04-22T19:46:28.422Z,20.60
2018-04-22T19:49:01.041Z,20.60
2018-04-22T19:51:33.466Z,20.80
2018-04-22T19:54:05.825Z,20.90
2018-04-22T19:56:38.342Z,21.00
2018-04-22T19:59:11.917Z,21.00
2018-04-22T20:01:45.353Z,21.00
2018-04-22T20:04:25.638Z,21.10
2018-04-22T20:06:59.041Z,21.00
2018-04-22T20:09:32.422Z,21.10
2018-04-22T20:12:05.397Z,21.10
2018-04-22T20:14:37.803Z,21.20
2018-04-22T20:17:10.330Z,21.20
2018-04-22T20:19:43.459Z,21.20
2018-04-22T20:22:30.306Z,21.20
2018-04-22T20:25:06.249Z,21.20
2018-04-22T20:27:38.717Z,21.20
2018-04-22T20:30:11.251Z,21.10
2018-04-22T20:32:44.805Z,21.10
2018-04-22T20:35:17.345Z,21.00
2018-04-22T20:37:49.877Z,20.90
2018-04-22T20:40:23.399Z,20.90
2018-04-22T20:42:56.785Z,20.90
2018-04-22T20:45:32.526Z,20.80
2018-04-22T20:48:09.057Z,20.70
2018-04-22T20:50:41.391Z,20.80
2018-04-22T20:53:16.997Z,20.80
2018-04-22T20:55:49.368Z,20.90
2018-04-22T20:58:23.278Z,20.90
2018-04-22T21:00:56.877Z,20.90
2018-04-22T21:03:30.379Z,20.90
2018-04-22T21:06:04.526Z,20.70
2018-04-22T21:08:37.714Z,20.60
2018-04-22T21:11:12.251Z,20.60
2018-04-22T21:13:46.862Z,20.60
2018-04-22T21:16:19.281Z,20.60
2018-04-22T21:18:51.693Z,20.60
2018-04-22T21:21:25.987Z,20.60
2018-04-22T21:23:58.766Z,20.60
2018-04-22T21:26:35.579Z,20.50
2018-04-22T21:29:29.346Z,20.50
2018-04-22T21:32:01.815Z,20.50
2018-04-22T21:34:36.227Z,20.40
2018-04-22T21:37:18.918Z,20.40
2018-04-22T21:39:54.615Z,20.50
2018-04-22T21:42:27.039Z,20.40
2018-04-22T21:45:01.732Z,20.40
2018-04-22T21:47:34.222Z,20.30
2018-04-22T21:50:07.144Z,20.10
2018-04-22T21:52:41.729Z,20.00
2018-04-22T21:55:14.369Z,19.90
2018-04-22T21:57:46.905Z,19.80
2018-04-22T22:00:21.550Z,19.90
2018-04-22T22:02:54.945Z,19.90
2018-04-22T22:05:27.318Z,20.00
2018-04-22T22:08:03.745Z,19.80
2018-04-22T22:10:37.294Z,19.80
2018-04-22T22:13:09.813Z,19.80
2018-04-22T22:15:49.689Z,19.80
2018-04-22T22:18:26.050Z,19.80
2018-04-22T22:20:58.490Z,19.70
2018-04-22T22:23:31.692Z,19.70
2018-04-22T22:26:05.211Z,19.70
2018-04-22T22:28:38.876Z,19.80
2018-04-22T22:31:12.226Z,19.80
2018-04-22T22:33:45.802Z,19.80
2018-04-22T22:36:18.312Z,19.80
2018-04-22T22:39:01.630Z,19.80
2018-04-22T22:41:35.173Z,19.80
2018-04-22T22:44:07.629Z,19.80
2018-04-22T22:46:45.137Z,19.90
2018-04-22T22:49:19.661Z,19.90
2018-04-22T22:51:52.391Z,19.80
2018-04-22T22:54:24.761Z,19.80
2018-04-22T22:56:59.497Z,19.80
2018-04-22T22:59:33.034Z,19.90
2018-04-22T23:02:05.545Z,19.90
2018-04-22T23:04:51.129Z,19.90
2018-04-22T23:07:23.822Z,19.80
2018-04-22T23:09:56.269Z,19.70
2018-04-22T23:12:29.822Z,19.50
2018-04-22T23:15:02.297Z,19.40
2018-04-22T23:17:34.978Z,19.30
2018-04-22T23:20:16.038Z,19.30
2018-04-22T23:22:51.617Z,19.30
2018-04-22T23:25:24.186Z,19.30
2018-04-22T23:27:56.963Z,19.20
2018-04-22T23:30:31.337Z,19.10
2018-04-22T23:33:04.757Z,19.10
2018-04-22T23:35:37.206Z,19.00
2018-04-22T23:38:09.743Z,18.90
2018-04-22T23:41:06.415Z,18.90
2018-04-22T23:43:40.977Z,18.80
2018-04-22T23:46:20.761Z,18.80
2018-04-22T23:48:58.609Z,18.90
2018-04-22T23:51:31.874Z,18.90
2018-04-22T23:54:05.077Z,18.80
2018-04-22T23:56:37.657Z,18.80
2018-04-22T23:59:10.198Z,18.80
